Time;durP1;ratioP1;P1;durP2;ratioP2;P2;SDS_P1;SDS_P2;PMS_P1;PMS_P2;Temp;Humidity;BMP_temperature;BMP_pressure;BME280_temperature;BME280_humidity;BME280_pressure;Samples;Min_cycle;Max_cycle;Signal;HPM_P1;HPM_P2
2023/03/29 00:01:57;;;;;;;45.90;27.20;;;17.50;44.50;;;;;;5113367;28;20458;-83
2023/03/29 00:04:26;;;;;;;46.93;27.80;;;17.50;44.60;;;;;;5116206;28;20463;-83
2023/03/29 00:06:54;;;;;;;48.80;27.90;;;17.50;44.60;;;;;;5117550;27;20444;-84
2023/03/29 00:09:25;;;;;;;47.20;28.20;;;17.50;44.60;;;;;;5115787;27;20530;-83
2023/03/29 00:11:53;;;;;;;49.57;28.80;;;17.50;44.70;;;;;;5124654;28;20424;-86
2023/03/29 00:14:22;;;;;;;51.20;30.30;;;17.50;44.70;;;;;;5112355;28;20482;-82
2023/03/29 00:16:50;;;;;;;48.03;28.30;;;17.50;44.80;;;;;;5110021;28;20482;-83
2023/03/29 00:19:18;;;;;;;51.33;30.57;;;17.50;44.80;;;;;;5109665;28;20971;-84
2023/03/29 00:21:46;;;;;;;50.23;28.50;;;17.40;44.80;;;;;;5111098;27;20452;-82
2023/03/29 00:24:14;;;;;;;48.50;28.83;;;17.40;44.80;;;;;;5113076;27;20450;-82
2023/03/29 00:26:42;;;;;;;48.13;28.20;;;17.40;44.90;;;;;;5114005;28;20442;-83
2023/03/29 00:29:10;;;;;;;51.00;29.57;;;17.40;44.90;;;;;;5113160;28;20443;-82
2023/03/29 00:31:40;;;;;;;51.17;30.17;;;17.40;45.00;;;;;;5111395;27;20455;-82
2023/03/29 00:34:08;;;;;;;49.03;28.27;;;17.40;44.90;;;;;;5111210;27;20506;-82
2023/03/29 00:36:39;;;;;;;48.83;28.13;;;17.40;45.00;;;;;;5113488;28;20467;-83
2023/03/29 00:39:08;;;;;;;49.50;29.70;;;17.40;45.00;;;;;;5113438;27;20462;-82
2023/03/29 00:41:36;;;;;;;49.50;28.90;;;17.40;45.00;;;;;;5114805;28;20456;-82
2023/03/29 00:44:04;;;;;;;44.37;26.60;;;17.40;45.00;;;;;;5114900;28;20455;-83
2023/03/29 00:46:33;;;;;;;45.53;26.17;;;17.40;45.00;;;;;;5115503;28;20442;-82
2023/03/29 00:49:05;;;;;;;47.07;25.80;;;17.40;45.00;;;;;;5114458;27;20475;-81
2023/03/29 00:51:35;;;;;;;43.40;24.33;;;17.30;44.80;;;;;;5111028;27;20452;-82
2023/03/29 00:54:03;;;;;;;35.40;22.30;;;17.30;44.90;;;;;;5116022;27;20444;-83
2023/03/29 00:56:34;;;;;;;42.60;25.10;;;17.30;44.90;;;;;;5116036;28;20486;-83
2023/03/29 00:59:03;;;;;;;39.23;23.07;;;17.30;45.00;;;;;;5115837;27;20464;-83
2023/03/29 01:01:33;;;;;;;36.47;22.50;;;17.30;44.90;;;;;;5115769;27;20447;-83
2023/03/29 01:04:05;;;;;;;37.50;22.27;;;17.30;45.00;;;;;;5115289;28;20485;-83
2023/03/29 01:06:34;;;;;;;34.20;20.33;;;17.30;45.00;;;;;;5116395;28;20496;-82
2023/03/29 01:09:03;;;;;;;39.57;22.90;;;17.20;45.00;;;;;;5113902;27;20480;-85
2023/03/29 01:11:32;;;;;;;34.30;20.63;;;17.20;44.90;;;;;;5114975;27;20456;-82
2023/03/29 01:14:02;;;;;;;33.87;20.07;;;17.20;44.90;;;;;;5116145;28;20454;-83
2023/03/29 01:16:31;;;;;;;34.70;20.17;;;17.20;44.90;;;;;;5117503;28;20467;-83
2023/03/29 01:19:01;;;;;;;32.07;19.30;;;17.20;44.90;;;;;;5113968;27;20543;-82
2023/03/29 01:21:31;;;;;;;35.43;19.40;;;17.20;44.90;;;;;;5115810;27;20508;-82
2023/03/29 01:24:31;;;;;;;28.97;17.33;;;17.20;44.70;;;;;;5116957;28;20516;-83
2023/03/29 01:27:01;;;;;;;30.20;17.40;;;17.20;44.70;;;;;;5116677;28;20435;-84
2023/03/29 01:29:33;;;;;;;29.07;17.87;;;17.10;44.70;;;;;;5116151;28;20451;-83
2023/03/29 01:32:03;;;;;;;28.10;16.73;;;17.10;44.80;;;;;;5116531;28;20458;-82
2023/03/29 01:34:35;;;;;;;28.37;16.90;;;17.10;44.70;;;;;;5117662;28;20435;-83
2023/03/29 01:37:04;;;;;;;27.03;15.80;;;17.10;44.60;;;;;;5115245;28;20471;-83
2023/03/29 01:39:33;;;;;;;29.83;17.63;;;17.10;44.70;;;;;;5117667;27;20440;-83
2023/03/29 01:42:15;;;;;;;25.03;15.20;;;17.10;44.70;;;;;;5120295;27;20507;-84
2023/03/29 01:44:47;;;;;;;24.50;13.50;;;17.10;44.70;;;;;;5114731;28;20447;-83
2023/03/29 01:47:19;;;;;;;23.00;13.90;;;17.00;44.70;;;;;;5119218;27;20474;-83
2023/03/29 01:49:51;;;;;;;22.03;13.27;;;17.00;44.80;;;;;;5116211;28;20515;-83
2023/03/29 01:52:20;;;;;;;23.50;14.67;;;17.00;44.90;;;;;;5119756;28;20447;-83
2023/03/29 01:54:50;;;;;;;23.57;14.50;;;17.00;44.80;;;;;;5118937;27;20451;-84
2023/03/29 01:57:18;;;;;;;21.43;13.63;;;16.90;44.80;;;;;;5120708;28;20479;-82
2023/03/29 01:59:48;;;;;;;19.70;12.47;;;17.00;44.80;;;;;;5120813;28;20439;-82
2023/03/29 02:02:16;;;;;;;21.30;12.40;;;16.90;44.80;;;;;;5115588;27;20456;-83
2023/03/29 02:04:48;;;;;;;19.90;12.10;;;16.90;44.90;;;;;;5118569;28;20479;-83
2023/03/29 02:07:17;;;;;;;20.50;12.07;;;16.90;44.80;;;;;;5119782;27;20473;-83
2023/03/29 02:09:45;;;;;;;17.47;10.60;;;16.90;44.70;;;;;;5119655;28;20455;-83
2023/03/29 02:12:13;;;;;;;16.10;10.50;;;16.90;44.80;;;;;;5119451;27;20460;-82
2023/03/29 02:14:41;;;;;;;19.33;11.30;;;16.90;44.80;;;;;;5119587;28;20451;-83
2023/03/29 02:17:15;;;;;;;17.27;10.80;;;16.80;44.70;;;;;;5120259;28;20467;-82
2023/03/29 02:19:48;;;;;;;17.37;11.03;;;16.80;44.70;;;;;;5114350;28;20459;-82
2023/03/29 02:22:19;;;;;;;16.37;10.27;;;16.80;44.90;;;;;;5113563;28;20452;-82
2023/03/29 02:24:47;;;;;;;16.00;9.80;;;16.80;44.90;;;;;;5114487;28;20440;-82
2023/03/29 02:27:15;;;;;;;14.57;9.67;;;16.80;44.90;;;;;;5118738;27;20456;-82
2023/03/29 02:29:45;;;;;;;13.20;9.13;;;16.80;44.80;;;;;;5118432;28;20432;-82
2023/03/29 02:32:16;;;;;;;16.37;9.80;;;16.80;44.90;;;;;;5116146;28;20455;-83
2023/03/29 02:34:46;;;;;;;16.30;9.37;;;16.80;44.90;;;;;;5114136;28;20493;-84
2023/03/29 02:37:17;;;;;;;15.53;9.37;;;16.80;45.00;;;;;;5111691;28;20507;-82
2023/03/29 02:39:46;;;;;;;11.47;8.33;;;16.80;45.00;;;;;;5118871;28;20436;-82
2023/03/29 02:42:15;;;;;;;13.37;8.90;;;16.80;45.10;;;;;;5118646;28;20436;-82
2023/03/29 02:44:45;;;;;;;16.17;9.10;;;16.80;45.00;;;;;;5117506;27;20580;-82
2023/03/29 02:47:16;;;;;;;11.73;8.07;;;16.70;44.80;;;;;;5112097;28;20483;-82
2023/03/29 02:49:44;;;;;;;13.13;8.60;;;16.80;45.10;;;;;;5120002;28;20474;-83
2023/03/29 02:52:14;;;;;;;11.37;7.30;;;16.70;44.90;;;;;;5113979;28;20456;-82
2023/03/29 02:54:42;;;;;;;15.27;8.20;;;16.80;44.90;;;;;;5114551;28;20448;-83
2023/03/29 02:57:11;;;;;;;11.00;7.67;;;16.70;44.90;;;;;;5116911;28;20472;-83
2023/03/29 02:59:39;;;;;;;10.70;7.80;;;16.70;44.80;;;;;;5118785;28;20443;-83
2023/03/29 03:02:07;;;;;;;11.60;7.90;;;16.70;44.90;;;;;;5118264;28;20452;-82
2023/03/29 03:04:37;;;;;;;10.30;7.03;;;16.70;44.80;;;;;;5118460;27;20468;-82
2023/03/29 03:07:05;;;;;;;10.73;7.20;;;16.70;44.80;;;;;;5119637;28;20490;-82
2023/03/29 03:09:34;;;;;;;10.83;6.97;;;16.70;44.80;;;;;;5115636;28;20454;-84
2023/03/29 03:12:02;;;;;;;10.50;6.53;;;16.70;44.80;;;;;;5115217;28;20452;-83
2023/03/29 03:14:29;;;;;;;10.00;7.03;;;16.70;44.80;;;;;;5118181;28;20424;-83
2023/03/29 03:16:58;;;;;;;10.47;6.50;;;16.70;44.70;;;;;;5117267;28;20472;-82
2023/03/29 03:19:26;;;;;;;9.80;6.60;;;16.70;44.80;;;;;;5131324;28;20487;-83
2023/03/29 03:21:56;;;;;;;9.43;6.50;;;16.70;44.80;;;;;;5115401;28;20446;-83
2023/03/29 03:24:24;;;;;;;8.77;6.23;;;16.70;44.80;;;;;;5113715;27;20459;-81
2023/03/29 03:26:53;;;;;;;8.67;5.93;;;16.60;44.70;;;;;;5111731;28;20440;-81
2023/03/29 03:29:21;;;;;;;8.03;5.63;;;16.60;44.60;;;;;;5112968;27;20442;-80
2023/03/29 03:31:51;;;;;;;7.37;5.83;;;16.60;44.70;;;;;;5110233;28;20439;-81
2023/03/29 03:34:20;;;;;;;6.40;5.50;;;16.60;44.60;;;;;;5117612;28;20446;-81
2023/03/29 03:36:49;;;;;;;7.87;5.87;;;16.60;44.70;;;;;;5115812;27;20464;-81
2023/03/29 03:39:19;;;;;;;8.53;5.90;;;16.60;44.60;;;;;;5115645;27;20480;-81
2023/03/29 03:41:47;;;;;;;7.10;5.50;;;16.60;44.60;;;;;;5118745;28;20448;-81
2023/03/29 03:44:15;;;;;;;8.00;6.13;;;16.60;44.50;;;;;;5118311;27;20455;-82
2023/03/29 03:46:43;;;;;;;7.40;5.83;;;16.60;44.50;;;;;;5109853;28;20456;-81
2023/03/29 03:49:11;;;;;;;11.00;6.07;;;16.50;44.50;;;;;;5115389;28;20462;-81
2023/03/29 03:51:40;;;;;;;5.97;5.37;;;16.50;44.50;;;;;;5118464;28;20436;-82
2023/03/29 03:54:09;;;;;;;7.03;5.10;;;16.50;44.40;;;;;;5114709;28;20475;-82
2023/03/29 03:56:38;;;;;;;7.63;6.00;;;16.50;44.40;;;;;;5116474;28;20448;-81
2023/03/29 03:59:06;;;;;;;7.40;5.60;;;16.50;44.50;;;;;;5115309;28;20436;-82
2023/03/29 04:01:36;;;;;;;6.40;5.80;;;16.50;44.60;;;;;;5112330;28;20602;-81
2023/03/29 04:04:04;;;;;;;7.17;5.60;;;16.50;44.60;;;;;;5110743;28;20891;-81
2023/03/29 04:06:32;;;;;;;7.73;5.50;;;16.50;44.60;;;;;;5117274;28;20443;-82
2023/03/29 04:09:01;;;;;;;6.20;4.97;;;16.50;44.60;;;;;;5116867;27;21086;-82
2023/03/29 04:11:29;;;;;;;8.63;6.30;;;16.50;44.60;;;;;;5116892;27;20447;-80
2023/03/29 04:13:58;;;;;;;10.57;5.90;;;16.50;44.60;;;;;;5115812;27;20447;-80
2023/03/29 04:16:27;;;;;;;9.67;6.10;;;16.50;44.60;;;;;;5113882;28;20482;-80
2023/03/29 04:18:55;;;;;;;7.13;5.73;;;16.50;44.60;;;;;;5113609;27;20478;-80
2023/03/29 04:21:23;;;;;;;7.00;5.47;;;16.50;44.60;;;;;;5107577;27;20452;-80
2023/03/29 04:23:51;;;;;;;8.63;5.20;;;16.50;44.50;;;;;;5112952;28;20454;-80
2023/03/29 04:26:21;;;;;;;8.83;5.67;;;16.40;44.50;;;;;;5112806;28;20443;-81
2023/03/29 04:28:49;;;;;;;7.23;6.37;;;16.40;44.50;;;;;;5114066;27;20459;-81
2023/03/29 04:31:18;;;;;;;7.17;5.40;;;16.40;44.40;;;;;;5114631;28;20435;-80
2023/03/29 04:33:46;;;;;;;7.07;5.77;;;16.40;44.50;;;;;;5115712;28;20477;-81
2023/03/29 04:36:15;;;;;;;5.53;4.60;;;16.40;44.50;;;;;;5110009;28;20449;-80
2023/03/29 04:38:43;;;;;;;6.13;5.40;;;16.40;44.60;;;;;;5113952;28;20476;-81
2023/03/29 04:41:15;;;;;;;6.47;4.97;;;16.40;44.60;;;;;;5107628;28;20439;-80
2023/03/29 04:43:45;;;;;;;6.33;5.70;;;16.40;44.70;;;;;;5115177;27;20448;-81
2023/03/29 04:46:13;;;;;;;6.97;5.17;;;16.40;44.70;;;;;;5107198;28;20502;-79
2023/03/29 04:48:43;;;;;;;5.37;4.87;;;16.40;44.70;;;;;;5115966;27;20540;-80
2023/03/29 04:51:11;;;;;;;6.03;5.00;;;16.40;44.60;;;;;;5106773;28;20464;-80
2023/03/29 04:53:40;;;;;;;6.20;4.93;;;16.30;44.70;;;;;;5115023;27;20452;-80
2023/03/29 04:56:08;;;;;;;6.13;4.97;;;16.40;44.80;;;;;;5113866;28;20466;-80
2023/03/29 04:58:37;;;;;;;7.50;5.23;;;16.40;44.70;;;;;;5115278;27;20497;-80
2023/03/29 05:01:05;;;;;;;7.20;5.57;;;16.40;44.60;;;;;;5115882;28;20435;-80
2023/03/29 05:03:34;;;;;;;7.10;5.33;;;16.40;45.30;;;;;;5116815;28;20439;-81
2023/03/29 05:06:05;;;;;;;5.87;5.27;;;16.30;44.60;;;;;;5115573;28;20494;-81
2023/03/29 05:08:37;;;;;;;8.60;6.03;;;16.30;44.50;;;;;;5112011;28;20556;-80
2023/03/29 05:11:06;;;;;;;7.07;5.23;;;16.30;44.60;;;;;;5115477;28;20523;-81
2023/03/29 05:13:35;;;;;;;5.33;4.83;;;16.30;44.50;;;;;;5117180;27;20443;-80
2023/03/29 05:16:03;;;;;;;7.67;5.43;;;16.40;44.60;;;;;;5115884;27;20462;-80
2023/03/29 05:18:31;;;;;;;8.20;5.50;;;16.40;44.70;;;;;;5118536;27;20471;-81
2023/03/29 05:20:59;;;;;;;5.73;5.07;;;16.30;44.60;;;;;;5120251;28;20457;-80
2023/03/29 05:23:29;;;;;;;6.00;4.83;;;16.30;44.60;;;;;;5120897;28;20527;-81
2023/03/29 05:25:57;;;;;;;5.33;4.73;;;16.30;44.70;;;;;;5117445;28;20444;-81
2023/03/29 05:28:26;;;;;;;6.53;5.00;;;16.30;44.60;;;;;;5112975;27;20474;-80
2023/03/29 05:31:00;;;;;;;5.23;4.33;;;16.30;44.50;;;;;;5119651;27;20456;-80
2023/03/29 05:33:29;;;;;;;6.67;4.73;;;16.30;44.70;;;;;;5120640;28;20843;-81
2023/03/29 05:36:00;;;;;;;5.90;4.60;;;16.30;44.70;;;;;;5118305;28;20473;-81
2023/03/29 05:38:31;;;;;;;5.20;4.70;;;16.30;44.70;;;;;;5119878;28;20475;-81
2023/03/29 05:41:00;;;;;;;4.30;3.90;;;16.30;44.80;;;;;;5119660;27;20434;-81
2023/03/29 05:43:28;;;;;;;4.40;4.00;;;16.30;44.80;;;;;;5112950;28;20444;-80
2023/03/29 05:45:56;;;;;;;5.70;4.30;;;16.30;44.80;;;;;;5119498;27;20448;-81
2023/03/29 05:48:24;;;;;;;4.87;4.33;;;16.30;44.80;;;;;;5115945;28;20528;-80
2023/03/29 05:50:53;;;;;;;4.80;4.40;;;16.30;44.70;;;;;;5116966;28;20454;-80
2023/03/29 05:53:23;;;;;;;6.80;4.50;;;16.30;44.80;;;;;;5122120;28;20438;-80
2023/03/29 05:55:52;;;;;;;4.20;3.83;;;16.30;44.70;;;;;;5118493;28;20473;-81
2023/03/29 05:58:21;;;;;;;5.50;4.33;;;16.30;44.70;;;;;;5118042;28;20478;-80
2023/03/29 06:00:50;;;;;;;4.77;4.27;;;16.30;44.70;;;;;;5119660;28;20955;-82
2023/03/29 06:03:19;;;;;;;5.10;4.13;;;16.30;44.80;;;;;;5118655;27;20446;-81
2023/03/29 06:05:49;;;;;;;4.10;3.70;;;16.30;44.70;;;;;;5116098;28;20948;-81
2023/03/29 06:08:18;;;;;;;5.33;3.83;;;16.30;44.80;;;;;;5106837;27;20456;-81
2023/03/29 06:10:46;;;;;;;4.67;4.03;;;16.30;44.80;;;;;;5110937;28;20436;-81
2023/03/29 06:13:15;;;;;;;6.60;4.30;;;16.40;44.90;;;;;;5118458;27;20449;-81
2023/03/29 06:15:43;;;;;;;4.30;4.00;;;16.40;44.80;;;;;;5116395;27;20463;-81
2023/03/29 06:18:11;;;;;;;8.33;3.97;;;16.40;44.80;;;;;;5113572;28;20489;-81
2023/03/29 06:20:40;;;;;;;4.97;3.90;;;16.40;44.90;;;;;;5116628;28;20475;-79
2023/03/29 06:23:08;;;;;;;4.40;4.00;;;16.40;44.90;;;;;;5113070;28;20459;-81
2023/03/29 06:25:36;;;;;;;4.70;4.30;;;16.40;44.80;;;;;;5127101;27;20431;-82
2023/03/29 06:28:04;;;;;;;4.30;3.90;;;16.40;44.80;;;;;;5119778;28;20484;-81
2023/03/29 06:30:33;;;;;;;4.17;3.77;;;16.40;44.60;;;;;;5112239;28;21058;-81
2023/03/29 06:33:01;;;;;;;5.33;3.87;;;16.50;44.80;;;;;;5114565;28;20431;-81
2023/03/29 06:35:29;;;;;;;3.60;3.40;;;16.50;44.70;;;;;;5109807;28;20467;-81
2023/03/29 06:37:57;;;;;;;4.13;3.70;;;16.50;44.80;;;;;;5114168;28;20451;-81
2023/03/29 06:40:26;;;;;;;4.20;3.80;;;16.50;44.80;;;;;;5102481;28;20471;-81
2023/03/29 06:42:56;;;;;;;6.80;4.37;;;16.50;44.80;;;;;;5108120;28;20429;-81
2023/03/29 06:45:25;;;;;;;4.07;3.77;;;16.50;44.70;;;;;;5114380;28;20509;-81
2023/03/29 06:47:57;;;;;;;4.00;3.70;;;16.50;44.80;;;;;;5108169;27;20464;-81
2023/03/29 06:50:25;;;;;;;4.17;3.77;;;16.50;44.80;;;;;;5112746;28;20436;-80
2023/03/29 06:52:53;;;;;;;4.30;3.53;;;16.50;44.90;;;;;;5107724;28;20451;-81
2023/03/29 06:55:22;;;;;;;4.20;3.80;;;16.60;44.80;;;;;;5108795;28;20441;-81
2023/03/29 06:57:50;;;;;;;3.90;3.60;;;16.60;44.90;;;;;;5107550;28;20462;-80
2023/03/29 07:00:22;;;;;;;4.67;3.57;;;16.60;44.80;;;;;;5108522;28;20467;-81
2023/03/29 07:02:49;;;;;;;3.83;3.53;;;16.60;44.90;;;;;;5116165;28;20436;-81
2023/03/29 07:05:20;;;;;;;4.10;3.50;;;16.70;44.80;;;;;;5113402;28;20443;-80
2023/03/29 07:07:55;;;;;;;4.40;3.53;;;16.70;44.90;;;;;;5114909;28;20464;-80
2023/03/29 07:10:24;;;;;;;4.07;3.47;;;16.70;44.80;;;;;;5106536;28;20421;-81
2023/03/29 07:12:52;;;;;;;3.77;3.47;;;16.70;44.70;;;;;;5110414;28;20466;-81
2023/03/29 07:15:20;;;;;;;3.77;3.47;;;16.70;44.70;;;;;;5112559;28;20447;-81
2023/03/29 07:17:49;;;;;;;3.77;3.47;;;16.70;44.90;;;;;;5113424;27;20516;-81
2023/03/29 07:20:18;;;;;;;3.70;3.40;;;16.70;44.80;;;;;;5116199;27;20491;-81
2023/03/29 07:22:47;;;;;;;3.57;3.30;;;16.70;45.00;;;;;;5112163;28;20451;-83
2023/03/29 07:25:16;;;;;;;4.57;3.50;;;16.70;44.80;;;;;;5114232;28;20428;-82
2023/03/29 07:27:43;;;;;;;3.30;3.10;;;16.70;45.00;;;;;;5111563;28;20465;-81
2023/03/29 07:30:15;;;;;;;8.50;7.23;;;16.70;44.90;;;;;;5111845;28;20455;-79
2023/03/29 07:32:44;;;;;;;9.83;7.87;;;14.90;47.00;;;;;;5106520;28;20922;-78
2023/03/29 07:35:14;;;;;;;13.63;8.20;;;14.00;49.70;;;;;;5105534;28;20458;-80
2023/03/29 07:37:45;;;;;;;12.63;8.60;;;13.50;50.40;;;;;;5111548;28;20555;-80
2023/03/29 07:40:14;;;;;;;14.27;9.07;;;12.40;52.20;;;;;;5107662;28;20464;-79
2023/03/29 07:42:47;;;;;;;16.17;8.27;;;12.20;53.20;;;;;;5112542;28;20485;-80
2023/03/29 07:45:16;;;;;;;12.23;8.97;;;11.90;54.70;;;;;;5102807;28;20467;-79
2023/03/29 07:47:45;;;;;;;17.43;9.60;;;11.70;55.10;;;;;;5106031;27;20468;-79
2023/03/29 07:50:13;;;;;;;14.03;9.80;;;11.50;55.10;;;;;;5113139;27;20435;-80
2023/03/29 07:52:42;;;;;;;19.17;9.93;;;10.90;57.00;;;;;;5114783;27;20453;-80
2023/03/29 07:55:12;;;;;;;19.30;11.20;;;11.30;58.40;;;;;;5111519;28;20450;-79
2023/03/29 07:57:42;;;;;;;18.70;10.67;;;11.20;57.10;;;;;;5108816;28;20499;-79
2023/03/29 08:00:13;;;;;;;19.63;9.90;;;10.70;58.50;;;;;;5105805;28;20463;-79
2023/03/29 08:02:43;;;;;;;14.10;9.17;;;10.30;60.20;;;;;;5108253;28;20449;-77
2023/03/29 08:05:11;;;;;;;12.43;8.33;;;11.10;65.20;;;;;;5112164;28;20500;-78
2023/03/29 08:07:40;;;;;;;15.77;7.90;;;12.70;62.30;;;;;;5112625;28;20452;-78
2023/03/29 08:10:09;;;;;;;9.77;6.63;;;14.00;58.70;;;;;;5116831;27;20547;-81
2023/03/29 08:12:40;;;;;;;13.73;5.90;;;15.10;56.00;;;;;;5112460;28;20475;-77
2023/03/29 08:15:08;;;;;;;18.30;6.20;;;16.00;54.30;;;;;;5113335;28;20440;-78
2023/03/29 08:17:36;;;;;;;13.43;4.87;;;16.70;53.20;;;;;;5112920;27;21032;-77
2023/03/29 08:20:05;;;;;;;9.80;5.20;;;17.30;52.80;;;;;;5108428;27;20465;-77
2023/03/29 08:22:33;;;;;;;11.43;4.60;;;17.80;52.20;;;;;;5107548;28;20958;-78
2023/03/29 08:25:01;;;;;;;11.00;4.80;;;18.30;52.00;;;;;;5112883;28;20440;-78
2023/03/29 08:27:29;;;;;;;7.17;4.30;;;18.60;52.00;;;;;;5110561;27;20794;-78
2023/03/29 08:29:58;;;;;;;13.23;4.00;;;18.90;51.30;;;;;;5109717;27;20443;-78
2023/03/29 08:32:26;;;;;;;6.87;4.20;;;19.30;51.00;;;;;;5106193;28;20444;-78
2023/03/29 08:34:54;;;;;;;7.53;3.83;;;19.50;50.40;;;;;;5104338;28;20471;-78
2023/03/29 08:37:24;;;;;;;6.80;3.63;;;19.60;50.30;;;;;;5105571;27;20472;-79
2023/03/29 08:39:52;;;;;;;7.30;3.70;;;19.80;50.10;;;;;;5103977;28;20501;-76
2023/03/29 08:42:29;;;;;;;13.93;3.50;;;20.00;49.50;;;;;;5110390;28;20432;-78
2023/03/29 08:45:04;;;;;;;8.23;3.53;;;20.10;49.00;;;;;;5116846;28;20436;-82
2023/03/29 08:47:36;;;;;;;11.23;4.10;;;20.20;49.00;;;;;;5105940;28;20448;-78
2023/03/29 08:50:05;;;;;;;13.40;4.00;;;20.10;51.10;;;;;;5109369;27;20501;-84
2023/03/29 08:52:35;;;;;;;9.27;3.57;;;20.20;50.10;;;;;;5123606;27;20443;-84
2023/03/29 08:55:05;;;;;;;11.90;3.90;;;20.10;48.80;;;;;;5109987;28;20453;-84
2023/03/29 08:57:34;;;;;;;11.50;3.40;;;20.00;48.70;;;;;;5111271;28;20471;-83
2023/03/29 09:00:05;;;;;;;6.27;3.80;;;19.80;48.70;;;;;;5117589;27;20460;-84
2023/03/29 09:02:34;;;;;;;9.57;3.67;;;19.70;49.10;;;;;;5122597;28;20454;-83
2023/03/29 09:05:07;;;;;;;6.90;4.10;;;19.50;49.10;;;;;;5132290;28;20440;-81
2023/03/29 09:07:36;;;;;;;7.47;3.70;;;19.40;49.20;;;;;;5117081;28;20460;-82
2023/03/29 09:10:04;;;;;;;6.30;4.00;;;19.30;49.40;;;;;;5115990;27;20449;-82
2023/03/29 09:12:40;;;;;;;5.90;4.27;;;19.20;49.40;;;;;;5110110;27;20522;-82
2023/03/29 09:15:14;;;;;;;4.87;3.80;;;19.10;49.40;;;;;;5115617;28;20446;-82
2023/03/29 09:17:53;;;;;;;9.50;3.77;;;19.10;49.60;;;;;;5119600;28;20458;-81
2023/03/29 09:20:27;;;;;;;6.67;4.07;;;18.90;49.50;;;;;;5119377;28;20489;-82
2023/03/29 09:23:01;;;;;;;5.27;4.30;;;18.90;50.20;;;;;;5127550;28;20529;-82
2023/03/29 09:25:31;;;;;;;9.97;4.47;;;18.90;49.60;;;;;;5118398;27;20454;-83
2023/03/29 09:28:13;;;;;;;6.07;4.13;;;18.80;49.60;;;;;;5110651;27;20746;-82
2023/03/29 09:30:45;;;;;;;12.37;4.80;;;18.80;49.50;;;;;;5105739;28;20437;-81
2023/03/29 09:33:19;;;;;;;6.27;4.20;;;18.80;49.50;;;;;;5118154;27;20450;-82
2023/03/29 09:35:49;;;;;;;7.80;4.40;;;18.70;49.50;;;;;;5125611;28;20453;-82
2023/03/29 09:38:17;;;;;;;6.77;4.10;;;18.70;49.60;;;;;;5110707;28;20453;-82
2023/03/29 09:40:46;;;;;;;5.90;3.93;;;18.60;49.50;;;;;;5107136;28;20475;-82
2023/03/29 09:43:17;;;;;;;9.23;4.40;;;18.60;49.50;;;;;;5111562;28;20428;-82
2023/03/29 09:45:48;;;;;;;7.13;4.40;;;18.70;49.70;;;;;;5105844;28;20523;-81
2023/03/29 09:48:18;;;;;;;3.97;3.63;;;18.70;49.70;;;;;;5105121;28;20513;-81
2023/03/29 09:50:46;;;;;;;5.73;4.30;;;18.60;49.70;;;;;;5112520;28;20468;-79
2023/03/29 09:53:14;;;;;;;4.63;4.00;;;18.60;49.60;;;;;;5112689;28;20432;-80
2023/03/29 09:55:43;;;;;;;4.13;3.70;;;18.60;49.70;;;;;;5105943;28;20535;-79
2023/03/29 09:58:13;;;;;;;5.50;4.07;;;18.60;49.70;;;;;;5111477;27;20464;-78
2023/03/29 10:00:41;;;;;;;9.70;4.27;;;18.70;49.60;;;;;;5111578;28;20466;-78
2023/03/29 10:03:17;;;;;;;5.73;4.00;;;18.70;49.70;;;;;;5106381;28;20456;-78
2023/03/29 10:05:45;;;;;;;5.30;4.33;;;18.80;49.50;;;;;;5111937;28;20446;-82
2023/03/29 10:08:17;;;;;;;4.80;3.50;;;18.90;49.50;;;;;;5109125;27;20466;-77
2023/03/29 10:10:46;;;;;;;5.37;3.93;;;19.00;49.30;;;;;;5100966;28;20530;-79
2023/03/29 10:13:21;;;;;;;9.27;3.63;;;19.00;49.50;;;;;;5115218;27;20822;-77
2023/03/29 10:16:02;;;;;;;5.67;3.30;;;19.10;50.10;;;;;;5113378;28;20438;-79
2023/03/29 10:18:31;;;;;;;8.77;3.30;;;19.20;50.40;;;;;;5104789;28;20458;-80
2023/03/29 10:21:01;;;;;;;9.67;3.53;;;19.20;50.40;;;;;;5112259;28;20474;-79
2023/03/29 10:23:31;;;;;;;4.83;3.53;;;19.30;50.60;;;;;;5111265;27;20450;-78
2023/03/29 10:25:59;;;;;;;9.00;3.20;;;19.30;51.10;;;;;;5116778;28;20448;-80
2023/03/29 10:28:27;;;;;;;8.63;3.27;;;19.60;51.50;;;;;;5118410;27;20491;-80
2023/03/29 10:30:56;;;;;;;9.60;2.67;;;19.70;50.70;;;;;;5115759;28;20956;-81
2023/03/29 10:33:24;;;;;;;8.63;3.00;;;19.80;50.50;;;;;;5110581;28;20448;-80
2023/03/29 10:35:55;;;;;;;5.30;3.60;;;19.90;50.00;;;;;;5112932;28;20532;-79
2023/03/29 10:38:26;;;;;;;4.70;3.00;;;20.00;49.60;;;;;;5106804;28;20480;-79
2023/03/29 10:40:55;;;;;;;8.87;3.30;;;20.00;49.50;;;;;;5104783;27;20472;-79
2023/03/29 10:43:23;;;;;;;5.97;3.23;;;19.90;49.60;;;;;;5106333;28;20499;-78
2023/03/29 10:45:52;;;;;;;6.00;3.57;;;19.90;49.60;;;;;;5116382;28;20429;-77
2023/03/29 10:48:24;;;;;;;6.70;3.10;;;19.80;49.50;;;;;;5112734;28;20535;-83
2023/03/29 10:50:54;;;;;;;4.47;3.37;;;19.80;49.80;;;;;;5113233;27;20683;-82
2023/03/29 10:53:25;;;;;;;4.17;3.70;;;19.80;49.80;;;;;;5099971;28;20445;-82
2023/03/29 10:55:57;;;;;;;6.07;3.43;;;20.00;49.80;;;;;;5109449;27;20472;-83
2023/03/29 10:58:32;;;;;;;6.50;3.50;;;20.10;49.40;;;;;;5115202;28;20540;-83
2023/03/29 11:01:00;;;;;;;3.80;3.43;;;20.40;49.70;;;;;;5114996;28;20553;-82
2023/03/29 11:03:43;;;;;;;8.17;3.83;;;20.80;49.60;;;;;;5114417;27;20418;-82
2023/03/29 11:06:15;;;;;;;4.60;3.20;;;20.80;48.50;;;;;;5111327;28;20451;-83
2023/03/29 11:08:48;;;;;;;6.00;3.50;;;20.90;48.70;;;;;;5114070;27;20482;-82
2023/03/29 11:11:51;;;;;;;3.80;3.50;;;21.30;48.60;;;;;;5105208;27;20427;-83
2023/03/29 11:14:38;;;;;;;3.80;3.50;;;21.60;48.80;;;;;;5046238;28;21019;-83
2023/03/29 11:17:11;;;;;;;6.07;4.00;;;22.10;48.40;;;;;;5110064;28;20463;-83
2023/03/29 11:19:48;;;;;;;4.27;3.73;;;22.60;47.90;;;;;;5111510;27;20456;-83
2023/03/29 11:22:20;;;;;;;5.57;3.67;;;22.90;47.20;;;;;;5111244;28;20467;-84
2023/03/29 11:24:55;;;;;;;6.77;3.30;;;22.90;46.60;;;;;;5106646;28;20961;-83
2023/03/29 11:27:28;;;;;;;4.50;3.73;;;22.90;46.30;;;;;;5113470;28;20463;-83
2023/03/29 11:30:02;;;;;;;4.33;3.83;;;22.90;46.60;;;;;;5107656;27;20464;-83
2023/03/29 11:32:34;;;;;;;9.30;4.27;;;23.50;47.20;;;;;;5105018;28;20463;-81
2023/03/29 11:35:08;;;;;;;3.43;3.10;;;23.60;45.80;;;;;;5110353;27;20441;-83
2023/03/29 11:37:41;;;;;;;14.43;3.73;;;23.40;45.40;;;;;;5118967;27;20470;-83
2023/03/29 11:40:27;;;;;;;5.90;3.60;;;23.10;45.90;;;;;;5111297;28;20444;-80
2023/03/29 11:42:56;;;;;;;6.67;3.30;;;23.00;46.10;;;;;;5116584;28;20455;-81
2023/03/29 11:45:27;;;;;;;4.33;3.70;;;22.90;46.20;;;;;;5110753;28;20499;-80
2023/03/29 11:47:55;;;;;;;5.83;3.27;;;22.80;46.20;;;;;;5112482;28;20524;-80
2023/03/29 11:50:24;;;;;;;7.03;4.03;;;22.70;46.30;;;;;;5106045;28;20466;-79
2023/03/29 11:52:55;;;;;;;5.90;3.90;;;22.60;46.30;;;;;;5103489;28;20482;-80
2023/03/29 11:55:24;;;;;;;4.30;3.83;;;22.50;46.40;;;;;;5113702;27;20444;-80
2023/03/29 11:57:55;;;;;;;5.30;3.80;;;22.40;46.40;;;;;;5105217;28;20513;-79
2023/03/29 12:00:24;;;;;;;5.50;3.70;;;22.30;46.70;;;;;;5107981;28;20468;-80
2023/03/29 12:02:55;;;;;;;4.30;3.53;;;22.20;46.70;;;;;;5108234;28;20444;-80
2023/03/29 12:05:26;;;;;;;6.30;3.80;;;22.10;46.90;;;;;;5105711;27;20456;-80
2023/03/29 12:07:58;;;;;;;4.37;3.70;;;22.00;46.90;;;;;;5110670;28;20478;-80
2023/03/29 12:10:28;;;;;;;4.93;4.20;;;21.90;47.10;;;;;;5104745;28;20443;-80
2023/03/29 12:13:00;;;;;;;4.77;3.73;;;21.80;47.20;;;;;;5112126;28;20471;-79
2023/03/29 12:15:30;;;;;;;4.97;3.63;;;21.80;47.40;;;;;;5111954;28;20448;-80
2023/03/29 12:18:03;;;;;;;7.40;4.07;;;21.70;47.30;;;;;;5105685;27;20469;-79
2023/03/29 12:20:32;;;;;;;8.40;4.60;;;21.60;47.30;;;;;;5108047;28;20550;-79
2023/03/29 12:23:01;;;;;;;8.87;5.00;;;21.70;47.60;;;;;;5111122;28;20448;-79
2023/03/29 12:25:30;;;;;;;5.60;4.43;;;21.70;47.30;;;;;;5110838;28;20475;-78
2023/03/29 12:28:19;;;;;;;6.50;4.30;;;21.80;47.40;;;;;;5110752;28;20493;-79
2023/03/29 12:30:52;;;;;;;5.90;4.70;;;22.00;47.30;;;;;;5112022;28;20402;-79
2023/03/29 12:33:48;;;;;;;5.00;4.60;;;22.00;46.90;;;;;;5107225;28;20472;-79
2023/03/29 12:36:43;;;;;;;4.43;3.97;;;22.10;47.00;;;;;;5101102;28;20448;-79
2023/03/29 12:39:14;;;;;;;5.47;4.70;;;22.50;47.60;;;;;;5102566;28;20986;-78
2023/03/29 12:41:44;;;;;;;5.17;4.67;;;22.70;46.30;;;;;;5114698;28;20448;-81
2023/03/29 12:44:12;;;;;;;7.37;4.67;;;23.80;47.70;;;;;;5111883;28;20419;-80
2023/03/29 12:46:40;;;;;;;5.53;4.37;;;24.50;46.20;;;;;;5104867;28;20420;-79
2023/03/29 12:49:12;;;;;;;4.87;4.40;;;24.50;43.70;;;;;;5110173;28;20452;-80
2023/03/29 12:51:41;;;;;;;5.33;4.10;;;24.20;43.70;;;;;;5109768;27;20463;-79
2023/03/29 12:54:13;;;;;;;7.10;4.00;;;23.80;43.90;;;;;;5101864;28;20956;-79
2023/03/29 12:56:42;;;;;;;6.13;4.67;;;23.50;44.30;;;;;;5109813;28;20440;-80